sensor_id;sensor_type;location;lat;lon;timestamp;P1;durP1;ratioP1;P2;durP2;ratioP2
16472;SDS011;8347;52.486;13.432;2022-12-10T00:02:36;23.15;;;12.05;;
16472;SDS011;8347;52.486;13.432;2022-12-10T00:05:22;25.85;;;12.00;;
16472;SDS011;8347;52.486;13.432;2022-12-10T00:08:09;21.83;;;11.10;;
16472;SDS011;8347;52.486;13.432;2022-12-10T00:10:56;25.80;;;11.90;;
16472;SDS011;8347;52.486;13.432;2022-12-10T00:13:42;25.60;;;12.40;;
16472;SDS011;8347;52.486;13.432;2022-12-10T00:16:29;21.50;;;11.13;;
16472;SDS011;8347;52.486;13.432;2022-12-10T00:19:19;21.52;;;11.75;;
16472;SDS011;8347;52.486;13.432;2022-12-10T00:22:06;21.02;;;10.40;;
16472;SDS011;8347;52.486;13.432;2022-12-10T00:24:52;23.83;;;10.95;;
16472;SDS011;8347;52.486;13.432;2022-12-10T00:27:38;26.30;;;13.70;;
16472;SDS011;8347;52.486;13.432;2022-12-10T00:30:25;23.03;;;11.50;;
16472;SDS011;8347;52.486;13.432;2022-12-10T00:33:11;23.73;;;12.00;;
16472;SDS011;8347;52.486;13.432;2022-12-10T00:36:03;21.00;;;10.65;;
16472;SDS011;8347;52.486;13.432;2022-12-10T00:38:50;23.55;;;10.93;;
16472;SDS011;8347;52.486;13.432;2022-12-10T00:41:37;23.45;;;12.10;;
16472;SDS011;8347;52.486;13.432;2022-12-10T00:44:23;22.10;;;12.07;;
16472;SDS011;8347;52.486;13.432;2022-12-10T00:47:09;20.35;;;11.15;;
16472;SDS011;8347;52.486;13.432;2022-12-10T00:49:56;22.48;;;11.60;;
16472;SDS011;8347;52.486;13.432;2022-12-10T00:52:43;24.85;;;11.20;;
16472;SDS011;8347;52.486;13.432;2022-12-10T00:55:29;25.70;;;11.73;;
16472;SDS011;8347;52.486;13.432;2022-12-10T00:58:15;20.08;;;9.93;;
16472;SDS011;8347;52.486;13.432;2022-12-10T01:03:56;26.13;;;12.35;;
16472;SDS011;8347;52.486;13.432;2022-12-10T01:06:44;28.43;;;12.17;;
16472;SDS011;8347;52.486;13.432;2022-12-10T01:09:31;22.35;;;11.48;;
16472;SDS011;8347;52.486;13.432;2022-12-10T01:12:17;21.30;;;11.47;;
16472;SDS011;8347;52.486;13.432;2022-12-10T01:15:04;24.30;;;11.77;;
16472;SDS011;8347;52.486;13.432;2022-12-10T01:17:50;26.73;;;12.75;;
16472;SDS011;8347;52.486;13.432;2022-12-10T01:20:37;23.73;;;11.73;;
16472;SDS011;8347;52.486;13.432;2022-12-10T01:23:23;25.93;;;11.23;;
16472;SDS011;8347;52.486;13.432;2022-12-10T01:26:11;23.05;;;11.82;;
16472;SDS011;8347;52.486;13.432;2022-12-10T01:29:00;24.50;;;10.90;;
16472;SDS011;8347;52.486;13.432;2022-12-10T01:31:52;24.60;;;11.60;;
16472;SDS011;8347;52.486;13.432;2022-12-10T01:34:39;25.52;;;12.45;;
16472;SDS011;8347;52.486;13.432;2022-12-10T01:37:26;24.55;;;12.73;;
16472;SDS011;8347;52.486;13.432;2022-12-10T01:40:12;22.40;;;12.00;;
16472;SDS011;8347;52.486;13.432;2022-12-10T01:42:59;20.45;;;12.13;;
16472;SDS011;8347;52.486;13.432;2022-12-10T01:45:45;23.07;;;11.73;;
16472;SDS011;8347;52.486;13.432;2022-12-10T01:48:31;23.30;;;10.82;;
16472;SDS011;8347;52.486;13.432;2022-12-10T01:51:18;19.98;;;10.32;;
16472;SDS011;8347;52.486;13.432;2022-12-10T01:54:07;24.00;;;11.20;;
16472;SDS011;8347;52.486;13.432;2022-12-10T01:56:58;20.33;;;9.65;;
16472;SDS011;8347;52.486;13.432;2022-12-10T01:59:46;22.03;;;11.27;;
16472;SDS011;8347;52.486;13.432;2022-12-10T02:02:44;22.57;;;10.97;;
16472;SDS011;8347;52.486;13.432;2022-12-10T02:05:37;22.23;;;10.65;;
16472;SDS011;8347;52.486;13.432;2022-12-10T02:08:27;23.57;;;10.40;;
16472;SDS011;8347;52.486;13.432;2022-12-10T02:11:22;22.70;;;11.30;;
16472;SDS011;8347;52.486;13.432;2022-12-10T02:14:13;21.13;;;10.33;;
16472;SDS011;8347;52.486;13.432;2022-12-10T02:17:03;27.42;;;11.82;;
16472;SDS011;8347;52.486;13.432;2022-12-10T02:19:57;21.83;;;11.32;;
16472;SDS011;8347;52.486;13.432;2022-12-10T02:22:56;20.60;;;10.77;;
16472;SDS011;8347;52.486;13.432;2022-12-10T02:28:44;23.73;;;11.47;;
16472;SDS011;8347;52.486;13.432;2022-12-10T02:31:33;18.65;;;11.05;;
16472;SDS011;8347;52.486;13.432;2022-12-10T02:34:23;21.20;;;10.57;;
16472;SDS011;8347;52.486;13.432;2022-12-10T02:37:17;23.03;;;12.07;;
16472;SDS011;8347;52.486;13.432;2022-12-10T02:40:27;25.87;;;12.10;;
16472;SDS011;8347;52.486;13.432;2022-12-10T02:43:17;21.47;;;12.33;;
16472;SDS011;8347;52.486;13.432;2022-12-10T02:46:05;26.50;;;12.33;;
16472;SDS011;8347;52.486;13.432;2022-12-10T02:48:52;28.10;;;11.77;;
16472;SDS011;8347;52.486;13.432;2022-12-10T02:51:39;23.53;;;12.93;;
16472;SDS011;8347;52.486;13.432;2022-12-10T02:54:40;26.07;;;12.53;;
16472;SDS011;8347;52.486;13.432;2022-12-10T02:57:41;29.33;;;12.17;;
16472;SDS011;8347;52.486;13.432;2022-12-10T03:01:06;25.77;;;11.83;;
16472;SDS011;8347;52.486;13.432;2022-12-10T03:03:56;23.13;;;12.30;;
16472;SDS011;8347;52.486;13.432;2022-12-10T03:06:53;26.73;;;13.70;;
16472;SDS011;8347;52.486;13.432;2022-12-10T03:09:53;25.17;;;12.73;;
16472;SDS011;8347;52.486;13.432;2022-12-10T03:12:44;29.33;;;13.77;;
16472;SDS011;8347;52.486;13.432;2022-12-10T03:15:34;28.13;;;12.67;;
16472;SDS011;8347;52.486;13.432;2022-12-10T03:18:21;24.80;;;12.90;;
16472;SDS011;8347;52.486;13.432;2022-12-10T03:21:09;22.58;;;11.35;;
16472;SDS011;8347;52.486;13.432;2022-12-10T03:23:56;23.73;;;12.03;;
16472;SDS011;8347;52.486;13.432;2022-12-10T03:26:43;27.27;;;13.83;;
16472;SDS011;8347;52.486;13.432;2022-12-10T03:29:31;25.90;;;11.77;;
16472;SDS011;8347;52.486;13.432;2022-12-10T03:32:20;28.63;;;13.10;;
16472;SDS011;8347;52.486;13.432;2022-12-10T03:35:10;25.30;;;13.50;;
16472;SDS011;8347;52.486;13.432;2022-12-10T03:37:57;27.77;;;13.25;;
16472;SDS011;8347;52.486;13.432;2022-12-10T03:40:44;29.13;;;12.73;;
16472;SDS011;8347;52.486;13.432;2022-12-10T03:43:30;30.40;;;14.40;;
16472;SDS011;8347;52.486;13.432;2022-12-10T03:46:17;25.07;;;12.80;;
16472;SDS011;8347;52.486;13.432;2022-12-10T03:49:04;28.00;;;13.20;;
16472;SDS011;8347;52.486;13.432;2022-12-10T03:51:50;31.33;;;13.73;;
16472;SDS011;8347;52.486;13.432;2022-12-10T03:54:38;28.92;;;12.73;;
16472;SDS011;8347;52.486;13.432;2022-12-10T03:57:25;27.42;;;13.80;;
16472;SDS011;8347;52.486;13.432;2022-12-10T04:00:11;26.70;;;12.35;;
16472;SDS011;8347;52.486;13.432;2022-12-10T04:02:58;27.35;;;13.88;;
16472;SDS011;8347;52.486;13.432;2022-12-10T04:05:46;26.58;;;12.85;;
16472;SDS011;8347;52.486;13.432;2022-12-10T04:08:33;29.42;;;13.95;;
16472;SDS011;8347;52.486;13.432;2022-12-10T04:11:19;29.88;;;13.65;;
16472;SDS011;8347;52.486;13.432;2022-12-10T04:14:07;26.43;;;12.77;;
16472;SDS011;8347;52.486;13.432;2022-12-10T04:17:13;26.10;;;13.15;;
16472;SDS011;8347;52.486;13.432;2022-12-10T04:20:00;35.40;;;15.23;;
16472;SDS011;8347;52.486;13.432;2022-12-10T04:22:47;29.42;;;15.15;;
16472;SDS011;8347;52.486;13.432;2022-12-10T04:25:52;24.35;;;12.60;;
16472;SDS011;8347;52.486;13.432;2022-12-10T04:28:59;28.20;;;12.40;;
16472;SDS011;8347;52.486;13.432;2022-12-10T04:31:45;29.08;;;13.13;;
16472;SDS011;8347;52.486;13.432;2022-12-10T04:34:32;28.77;;;13.60;;
16472;SDS011;8347;52.486;13.432;2022-12-10T04:37:19;27.17;;;14.13;;
16472;SDS011;8347;52.486;13.432;2022-12-10T04:40:05;30.27;;;15.13;;
16472;SDS011;8347;52.486;13.432;2022-12-10T04:42:52;30.63;;;14.07;;
16472;SDS011;8347;52.486;13.432;2022-12-10T04:45:39;26.35;;;13.35;;
16472;SDS011;8347;52.486;13.432;2022-12-10T04:48:26;28.63;;;13.57;;
16472;SDS011;8347;52.486;13.432;2022-12-10T04:51:12;31.67;;;14.68;;
16472;SDS011;8347;52.486;13.432;2022-12-10T04:53:59;28.65;;;13.95;;
16472;SDS011;8347;52.486;13.432;2022-12-10T04:56:46;25.83;;;12.55;;
16472;SDS011;8347;52.486;13.432;2022-12-10T04:59:33;24.90;;;13.10;;
16472;SDS011;8347;52.486;13.432;2022-12-10T05:02:19;29.65;;;15.25;;
16472;SDS011;8347;52.486;13.432;2022-12-10T05:05:06;28.23;;;12.85;;
16472;SDS011;8347;52.486;13.432;2022-12-10T05:07:53;25.95;;;13.48;;
16472;SDS011;8347;52.486;13.432;2022-12-10T05:10:39;27.30;;;13.45;;
16472;SDS011;8347;52.486;13.432;2022-12-10T05:13:26;26.30;;;13.77;;
16472;SDS011;8347;52.486;13.432;2022-12-10T05:16:16;28.60;;;14.10;;
16472;SDS011;8347;52.486;13.432;2022-12-10T05:19:04;34.28;;;15.05;;
16472;SDS011;8347;52.486;13.432;2022-12-10T05:21:51;28.15;;;13.70;;
16472;SDS011;8347;52.486;13.432;2022-12-10T05:24:56;27.02;;;13.35;;
16472;SDS011;8347;52.486;13.432;2022-12-10T05:27:42;31.60;;;14.48;;
16472;SDS011;8347;52.486;13.432;2022-12-10T05:30:29;24.95;;;12.80;;
16472;SDS011;8347;52.486;13.432;2022-12-10T05:33:15;28.27;;;14.18;;
16472;SDS011;8347;52.486;13.432;2022-12-10T05:36:03;27.10;;;13.32;;
16472;SDS011;8347;52.486;13.432;2022-12-10T05:38:50;25.25;;;12.07;;
16472;SDS011;8347;52.486;13.432;2022-12-10T05:41:37;26.25;;;13.77;;
16472;SDS011;8347;52.486;13.432;2022-12-10T05:44:24;27.95;;;12.48;;
16472;SDS011;8347;52.486;13.432;2022-12-10T05:47:11;28.67;;;13.80;;
16472;SDS011;8347;52.486;13.432;2022-12-10T05:49:57;25.17;;;12.43;;
16472;SDS011;8347;52.486;13.432;2022-12-10T05:52:44;28.23;;;14.23;;
16472;SDS011;8347;52.486;13.432;2022-12-10T05:55:30;25.92;;;12.50;;
16472;SDS011;8347;52.486;13.432;2022-12-10T05:58:18;27.55;;;12.63;;
16472;SDS011;8347;52.486;13.432;2022-12-10T06:01:06;24.67;;;12.52;;
16472;SDS011;8347;52.486;13.432;2022-12-10T06:03:53;21.17;;;11.35;;
16472;SDS011;8347;52.486;13.432;2022-12-10T06:06:42;21.17;;;10.93;;
16472;SDS011;8347;52.486;13.432;2022-12-10T06:09:30;21.20;;;11.68;;
16472;SDS011;8347;52.486;13.432;2022-12-10T06:12:16;23.00;;;9.98;;
16472;SDS011;8347;52.486;13.432;2022-12-10T06:15:03;24.85;;;12.77;;
16472;SDS011;8347;52.486;13.432;2022-12-10T06:17:50;19.70;;;11.02;;
16472;SDS011;8347;52.486;13.432;2022-12-10T06:20:37;18.23;;;11.38;;
16472;SDS011;8347;52.486;13.432;2022-12-10T06:23:24;21.00;;;11.18;;
16472;SDS011;8347;52.486;13.432;2022-12-10T06:26:15;21.83;;;11.13;;
16472;SDS011;8347;52.486;13.432;2022-12-10T06:29:02;22.17;;;12.27;;
16472;SDS011;8347;52.486;13.432;2022-12-10T06:31:50;21.48;;;11.75;;
16472;SDS011;8347;52.486;13.432;2022-12-10T06:34:36;18.17;;;10.77;;
16472;SDS011;8347;52.486;13.432;2022-12-10T06:37:23;19.75;;;10.88;;
16472;SDS011;8347;52.486;13.432;2022-12-10T06:40:10;20.27;;;10.07;;
16472;SDS011;8347;52.486;13.432;2022-12-10T06:42:57;20.95;;;11.07;;
16472;SDS011;8347;52.486;13.432;2022-12-10T06:45:43;20.23;;;10.83;;
16472;SDS011;8347;52.486;13.432;2022-12-10T06:48:29;19.30;;;10.70;;
16472;SDS011;8347;52.486;13.432;2022-12-10T06:51:16;18.02;;;11.02;;
16472;SDS011;8347;52.486;13.432;2022-12-10T06:54:03;19.95;;;10.60;;
16472;SDS011;8347;52.486;13.432;2022-12-10T06:56:50;21.88;;;10.43;;
16472;SDS011;8347;52.486;13.432;2022-12-10T06:59:36;19.58;;;11.55;;
16472;SDS011;8347;52.486;13.432;2022-12-10T07:02:23;20.77;;;11.38;;
16472;SDS011;8347;52.486;13.432;2022-12-10T07:05:09;20.35;;;11.07;;
16472;SDS011;8347;52.486;13.432;2022-12-10T07:07:56;19.48;;;10.30;;
16472;SDS011;8347;52.486;13.432;2022-12-10T07:10:42;16.63;;;10.30;;
16472;SDS011;8347;52.486;13.432;2022-12-10T07:13:28;18.45;;;10.27;;
16472;SDS011;8347;52.486;13.432;2022-12-10T07:16:16;16.73;;;10.55;;
16472;SDS011;8347;52.486;13.432;2022-12-10T07:19:03;17.30;;;9.90;;
16472;SDS011;8347;52.486;13.432;2022-12-10T07:21:49;15.70;;;8.95;;
16472;SDS011;8347;52.486;13.432;2022-12-10T07:24:37;17.40;;;9.85;;
16472;SDS011;8347;52.486;13.432;2022-12-10T07:27:24;16.35;;;10.07;;
16472;SDS011;8347;52.486;13.432;2022-12-10T07:30:10;19.77;;;10.48;;
16472;SDS011;8347;52.486;13.432;2022-12-10T07:32:57;19.58;;;9.68;;
16472;SDS011;8347;52.486;13.432;2022-12-10T07:35:44;16.15;;;9.75;;
16472;SDS011;8347;52.486;13.432;2022-12-10T07:38:30;17.05;;;10.15;;
16472;SDS011;8347;52.486;13.432;2022-12-10T07:41:16;17.23;;;9.98;;
16472;SDS011;8347;52.486;13.432;2022-12-10T07:44:03;16.92;;;11.10;;
16472;SDS011;8347;52.486;13.432;2022-12-10T07:46:52;16.75;;;10.30;;
16472;SDS011;8347;52.486;13.432;2022-12-10T07:49:39;18.45;;;10.07;;
16472;SDS011;8347;52.486;13.432;2022-12-10T07:52:26;19.92;;;11.15;;
16472;SDS011;8347;52.486;13.432;2022-12-10T07:55:13;18.73;;;10.57;;
16472;SDS011;8347;52.486;13.432;2022-12-10T07:57:59;18.50;;;10.02;;
16472;SDS011;8347;52.486;13.432;2022-12-10T08:00:45;16.52;;;10.02;;
16472;SDS011;8347;52.486;13.432;2022-12-10T08:03:32;18.02;;;10.52;;
16472;SDS011;8347;52.486;13.432;2022-12-10T08:06:19;17.00;;;9.32;;
16472;SDS011;8347;52.486;13.432;2022-12-10T08:09:06;18.95;;;11.10;;
16472;SDS011;8347;52.486;13.432;2022-12-10T08:11:53;17.00;;;10.15;;
16472;SDS011;8347;52.486;13.432;2022-12-10T08:14:40;17.65;;;10.68;;
16472;SDS011;8347;52.486;13.432;2022-12-10T08:17:26;14.93;;;9.43;;
16472;SDS011;8347;52.486;13.432;2022-12-10T08:20:13;15.45;;;9.52;;
16472;SDS011;8347;52.486;13.432;2022-12-10T08:23:00;20.63;;;12.07;;
16472;SDS011;8347;52.486;13.432;2022-12-10T08:25:46;17.17;;;9.73;;
16472;SDS011;8347;52.486;13.432;2022-12-10T08:28:33;14.60;;;9.02;;
16472;SDS011;8347;52.486;13.432;2022-12-10T08:31:20;16.17;;;10.10;;
16472;SDS011;8347;52.486;13.432;2022-12-10T08:34:12;16.42;;;10.13;;
16472;SDS011;8347;52.486;13.432;2022-12-10T08:36:59;19.17;;;9.50;;
16472;SDS011;8347;52.486;13.432;2022-12-10T08:39:45;16.00;;;8.90;;
16472;SDS011;8347;52.486;13.432;2022-12-10T08:42:32;16.05;;;9.65;;
16472;SDS011;8347;52.486;13.432;2022-12-10T08:45:18;16.00;;;9.25;;
16472;SDS011;8347;52.486;13.432;2022-12-10T08:48:05;14.65;;;9.13;;
16472;SDS011;8347;52.486;13.432;2022-12-10T08:50:51;14.50;;;9.32;;
16472;SDS011;8347;52.486;13.432;2022-12-10T08:53:38;17.55;;;10.45;;
16472;SDS011;8347;52.486;13.432;2022-12-10T08:56:25;15.93;;;10.27;;
16472;SDS011;8347;52.486;13.432;2022-12-10T08:59:11;20.40;;;11.13;;
16472;SDS011;8347;52.486;13.432;2022-12-10T09:01:58;15.35;;;9.50;;
16472;SDS011;8347;52.486;13.432;2022-12-10T09:04:45;16.67;;;10.50;;
16472;SDS011;8347;52.486;13.432;2022-12-10T09:07:31;18.88;;;10.10;;
16472;SDS011;8347;52.486;13.432;2022-12-10T09:10:18;17.70;;;9.52;;
16472;SDS011;8347;52.486;13.432;2022-12-10T09:13:05;17.23;;;11.43;;
16472;SDS011;8347;52.486;13.432;2022-12-10T09:15:52;16.35;;;9.63;;
16472;SDS011;8347;52.486;13.432;2022-12-10T09:18:39;15.15;;;9.48;;
16472;SDS011;8347;52.486;13.432;2022-12-10T09:21:27;13.93;;;9.32;;
16472;SDS011;8347;52.486;13.432;2022-12-10T09:24:13;16.45;;;10.65;;
16472;SDS011;8347;52.486;13.432;2022-12-10T09:27:00;17.42;;;10.00;;
16472;SDS011;8347;52.486;13.432;2022-12-10T09:29:47;16.75;;;11.23;;
16472;SDS011;8347;52.486;13.432;2022-12-10T09:32:34;20.48;;;10.98;;
16472;SDS011;8347;52.486;13.432;2022-12-10T09:35:20;15.70;;;9.32;;
16472;SDS011;8347;52.486;13.432;2022-12-10T09:38:06;19.08;;;11.77;;
16472;SDS011;8347;52.486;13.432;2022-12-10T09:43:56;18.05;;;11.90;;
16472;SDS011;8347;52.486;13.432;2022-12-10T09:49:39;19.50;;;11.73;;
16472;SDS011;8347;52.486;13.432;2022-12-10T09:52:27;18.25;;;11.25;;
16472;SDS011;8347;52.486;13.432;2022-12-10T09:55:20;17.48;;;11.98;;
16472;SDS011;8347;52.486;13.432;2022-12-10T09:58:11;20.40;;;12.63;;
16472;SDS011;8347;52.486;13.432;2022-12-10T10:00:59;20.00;;;12.05;;
16472;SDS011;8347;52.486;13.432;2022-12-10T10:03:46;17.75;;;11.52;;
16472;SDS011;8347;52.486;13.432;2022-12-10T10:06:33;24.02;;;14.35;;
16472;SDS011;8347;52.486;13.432;2022-12-10T10:09:20;22.95;;;14.50;;
16472;SDS011;8347;52.486;13.432;2022-12-10T10:12:12;19.13;;;11.63;;
16472;SDS011;8347;52.486;13.432;2022-12-10T10:15:09;21.55;;;12.23;;
16472;SDS011;8347;52.486;13.432;2022-12-10T10:17:58;20.63;;;12.48;;
16472;SDS011;8347;52.486;13.432;2022-12-10T10:20:45;18.52;;;11.75;;
16472;SDS011;8347;52.486;13.432;2022-12-10T10:23:32;21.40;;;12.13;;
16472;SDS011;8347;52.486;13.432;2022-12-10T10:26:19;19.60;;;11.55;;
16472;SDS011;8347;52.486;13.432;2022-12-10T10:29:06;18.20;;;11.73;;
16472;SDS011;8347;52.486;13.432;2022-12-10T10:32:17;22.98;;;13.32;;
16472;SDS011;8347;52.486;13.432;2022-12-10T10:35:04;23.33;;;11.73;;
16472;SDS011;8347;52.486;13.432;2022-12-10T10:37:51;19.42;;;11.57;;
16472;SDS011;8347;52.486;13.432;2022-12-10T10:40:43;16.48;;;10.65;;
16472;SDS011;8347;52.486;13.432;2022-12-10T10:43:51;18.85;;;11.20;;
16472;SDS011;8347;52.486;13.432;2022-12-10T10:46:40;17.38;;;11.15;;
16472;SDS011;8347;52.486;13.432;2022-12-10T10:49:29;18.35;;;11.60;;
16472;SDS011;8347;52.486;13.432;2022-12-10T10:52:17;16.65;;;11.25;;
16472;SDS011;8347;52.486;13.432;2022-12-10T10:55:03;18.52;;;10.93;;
16472;SDS011;8347;52.486;13.432;2022-12-10T10:57:50;20.38;;;12.43;;
16472;SDS011;8347;52.486;13.432;2022-12-10T11:00:38;20.45;;;12.20;;
16472;SDS011;8347;52.486;13.432;2022-12-10T11:03:25;20.73;;;11.95;;
16472;SDS011;8347;52.486;13.432;2022-12-10T11:06:12;22.23;;;13.02;;
16472;SDS011;8347;52.486;13.432;2022-12-10T11:08:59;20.08;;;12.02;;
16472;SDS011;8347;52.486;13.432;2022-12-10T11:11:49;17.20;;;11.60;;
16472;SDS011;8347;52.486;13.432;2022-12-10T11:14:40;23.10;;;13.82;;
16472;SDS011;8347;52.486;13.432;2022-12-10T11:17:27;17.52;;;11.88;;
16472;SDS011;8347;52.486;13.432;2022-12-10T11:23:12;18.08;;;12.23;;
16472;SDS011;8347;52.486;13.432;2022-12-10T11:29:02;22.23;;;12.77;;
16472;SDS011;8347;52.486;13.432;2022-12-10T11:32:17;23.13;;;12.80;;
16472;SDS011;8347;52.486;13.432;2022-12-10T11:38:31;21.65;;;12.70;;
16472;SDS011;8347;52.486;13.432;2022-12-10T11:47:44;19.98;;;12.45;;
16472;SDS011;8347;52.486;13.432;2022-12-10T11:50:43;20.38;;;11.57;;
16472;SDS011;8347;52.486;13.432;2022-12-10T11:53:38;22.85;;;13.10;;
16472;SDS011;8347;52.486;13.432;2022-12-10T11:56:30;19.67;;;12.52;;
16472;SDS011;8347;52.486;13.432;2022-12-10T11:59:27;23.20;;;12.80;;
16472;SDS011;8347;52.486;13.432;2022-12-10T12:08:03;17.63;;;11.77;;
16472;SDS011;8347;52.486;13.432;2022-12-10T12:11:22;20.33;;;12.10;;
16472;SDS011;8347;52.486;13.432;2022-12-10T12:14:18;21.00;;;12.38;;
16472;SDS011;8347;52.486;13.432;2022-12-10T12:17:10;19.88;;;11.75;;
16472;SDS011;8347;52.486;13.432;2022-12-10T12:20:02;18.85;;;12.65;;
16472;SDS011;8347;52.486;13.432;2022-12-10T12:23:00;19.95;;;12.68;;
16472;SDS011;8347;52.486;13.432;2022-12-10T12:25:56;23.45;;;12.07;;
16472;SDS011;8347;52.486;13.432;2022-12-10T12:28:55;18.50;;;12.52;;
16472;SDS011;8347;52.486;13.432;2022-12-10T12:31:54;20.00;;;12.13;;
16472;SDS011;8347;52.486;13.432;2022-12-10T12:34:59;18.38;;;11.88;;
16472;SDS011;8347;52.486;13.432;2022-12-10T12:38:03;20.45;;;10.98;;
16472;SDS011;8347;52.486;13.432;2022-12-10T12:40:55;21.63;;;12.68;;
16472;SDS011;8347;52.486;13.432;2022-12-10T12:43:52;19.00;;;11.18;;
16472;SDS011;8347;52.486;13.432;2022-12-10T12:46:48;19.40;;;12.40;;
16472;SDS011;8347;52.486;13.432;2022-12-10T12:49:36;21.20;;;12.23;;
16472;SDS011;8347;52.486;13.432;2022-12-10T12:55:21;21.05;;;12.70;;
16472;SDS011;8347;52.486;13.432;2022-12-10T12:58:16;17.73;;;11.25;;
16472;SDS011;8347;52.486;13.432;2022-12-10T13:01:28;19.98;;;11.73;;
16472;SDS011;8347;52.486;13.432;2022-12-10T13:04:12;18.42;;;11.50;;
16472;SDS011;8347;52.486;13.432;2022-12-10T13:07:26;19.58;;;11.90;;
16472;SDS011;8347;52.486;13.432;2022-12-10T13:13:06;18.45;;;12.32;;
16472;SDS011;8347;52.486;13.432;2022-12-10T13:19:22;17.05;;;10.27;;
16472;SDS011;8347;52.486;13.432;2022-12-10T13:22:11;15.75;;;11.18;;
16472;SDS011;8347;52.486;13.432;2022-12-10T13:25:03;15.43;;;9.52;;
16472;SDS011;8347;52.486;13.432;2022-12-10T13:27:56;18.92;;;11.38;;
16472;SDS011;8347;52.486;13.432;2022-12-10T13:30:43;16.55;;;11.27;;
16472;SDS011;8347;52.486;13.432;2022-12-10T13:34:04;19.95;;;10.57;;
16472;SDS011;8347;52.486;13.432;2022-12-10T13:37:03;19.15;;;11.40;;
16472;SDS011;8347;52.486;13.432;2022-12-10T13:40:00;20.48;;;11.68;;
16472;SDS011;8347;52.486;13.432;2022-12-10T13:42:54;18.30;;;12.05;;
16472;SDS011;8347;52.486;13.432;2022-12-10T13:46:30;19.15;;;11.32;;
16472;SDS011;8347;52.486;13.432;2022-12-10T13:49:20;21.70;;;11.57;;
16472;SDS011;8347;52.486;13.432;2022-12-10T13:52:13;19.95;;;11.55;;
16472;SDS011;8347;52.486;13.432;2022-12-10T13:55:07;22.10;;;12.10;;
16472;SDS011;8347;52.486;13.432;2022-12-10T13:58:13;20.25;;;12.30;;
16472;SDS011;8347;52.486;13.432;2022-12-10T14:04:29;17.52;;;11.68;;
16472;SDS011;8347;52.486;13.432;2022-12-10T14:07:21;17.52;;;11.13;;
16472;SDS011;8347;52.486;13.432;2022-12-10T14:10:10;24.60;;;13.75;;
16472;SDS011;8347;52.486;13.432;2022-12-10T14:13:02;25.60;;;13.88;;
16472;SDS011;8347;52.486;13.432;2022-12-10T14:15:51;24.38;;;12.65;;
16472;SDS011;8347;52.486;13.432;2022-12-10T14:18:44;20.92;;;12.27;;
16472;SDS011;8347;52.486;13.432;2022-12-10T14:21:33;22.95;;;12.15;;
16472;SDS011;8347;52.486;13.432;2022-12-10T14:24:37;26.70;;;13.68;;
16472;SDS011;8347;52.486;13.432;2022-12-10T14:27:25;21.73;;;12.65;;
16472;SDS011;8347;52.486;13.432;2022-12-10T14:30:23;26.17;;;13.07;;
16472;SDS011;8347;52.486;13.432;2022-12-10T14:33:12;25.92;;;12.68;;
16472;SDS011;8347;52.486;13.432;2022-12-10T14:36:05;26.00;;;13.23;;
16472;SDS011;8347;52.486;13.432;2022-12-10T14:38:52;20.80;;;12.85;;
16472;SDS011;8347;52.486;13.432;2022-12-10T14:41:39;25.67;;;13.65;;
16472;SDS011;8347;52.486;13.432;2022-12-10T14:44:26;25.77;;;13.15;;
16472;SDS011;8347;52.486;13.432;2022-12-10T14:47:19;25.67;;;13.98;;
16472;SDS011;8347;52.486;13.432;2022-12-10T14:50:09;26.20;;;12.95;;
16472;SDS011;8347;52.486;13.432;2022-12-10T14:52:57;22.52;;;12.77;;
16472;SDS011;8347;52.486;13.432;2022-12-10T14:55:45;25.02;;;14.50;;
16472;SDS011;8347;52.486;13.432;2022-12-10T14:58:45;25.67;;;14.20;;
16472;SDS011;8347;52.486;13.432;2022-12-10T15:01:36;29.10;;;14.68;;
16472;SDS011;8347;52.486;13.432;2022-12-10T15:04:24;23.50;;;13.63;;
16472;SDS011;8347;52.486;13.432;2022-12-10T15:07:13;26.50;;;13.52;;
16472;SDS011;8347;52.486;13.432;2022-12-10T15:10:01;23.23;;;13.20;;
16472;SDS011;8347;52.486;13.432;2022-12-10T15:12:48;28.60;;;12.38;;
16472;SDS011;8347;52.486;13.432;2022-12-10T15:15:40;23.58;;;12.82;;
16472;SDS011;8347;52.486;13.432;2022-12-10T15:18:31;27.63;;;14.73;;
16472;SDS011;8347;52.486;13.432;2022-12-10T15:21:20;26.10;;;13.00;;
16472;SDS011;8347;52.486;13.432;2022-12-10T15:24:13;26.05;;;12.63;;
16472;SDS011;8347;52.486;13.432;2022-12-10T15:27:01;26.75;;;12.68;;
16472;SDS011;8347;52.486;13.432;2022-12-10T15:29:48;27.58;;;13.18;;
16472;SDS011;8347;52.486;13.432;2022-12-10T15:32:35;26.38;;;12.10;;
16472;SDS011;8347;52.486;13.432;2022-12-10T15:35:21;30.67;;;13.05;;
16472;SDS011;8347;52.486;13.432;2022-12-10T15:38:11;27.90;;;13.77;;
16472;SDS011;8347;52.486;13.432;2022-12-10T15:41:00;32.47;;;12.90;;
16472;SDS011;8347;52.486;13.432;2022-12-10T15:44:24;31.88;;;13.02;;
16472;SDS011;8347;52.486;13.432;2022-12-10T15:47:16;28.70;;;12.68;;
16472;SDS011;8347;52.486;13.432;2022-12-10T15:50:03;29.00;;;14.10;;
16472;SDS011;8347;52.486;13.432;2022-12-10T15:52:51;33.22;;;14.90;;
16472;SDS011;8347;52.486;13.432;2022-12-10T15:55:38;32.00;;;12.93;;
16472;SDS011;8347;52.486;13.432;2022-12-10T15:58:25;28.92;;;12.10;;
16472;SDS011;8347;52.486;13.432;2022-12-10T16:01:13;27.35;;;12.45;;
16472;SDS011;8347;52.486;13.432;2022-12-10T16:04:01;34.28;;;14.15;;
16472;SDS011;8347;52.486;13.432;2022-12-10T16:06:47;26.13;;;13.68;;
16472;SDS011;8347;52.486;13.432;2022-12-10T16:09:34;35.08;;;13.75;;
16472;SDS011;8347;52.486;13.432;2022-12-10T16:12:21;33.30;;;14.13;;
16472;SDS011;8347;52.486;13.432;2022-12-10T16:15:11;32.70;;;13.68;;
16472;SDS011;8347;52.486;13.432;2022-12-10T16:18:03;34.22;;;14.48;;
16472;SDS011;8347;52.486;13.432;2022-12-10T16:20:50;33.80;;;12.90;;
16472;SDS011;8347;52.486;13.432;2022-12-10T16:23:37;29.45;;;12.82;;
16472;SDS011;8347;52.486;13.432;2022-12-10T16:26:24;31.98;;;13.10;;
16472;SDS011;8347;52.486;13.432;2022-12-10T16:29:10;35.38;;;14.35;;
16472;SDS011;8347;52.486;13.432;2022-12-10T16:31:57;36.55;;;13.60;;
16472;SDS011;8347;52.486;13.432;2022-12-10T16:34:43;35.25;;;14.68;;
16472;SDS011;8347;52.486;13.432;2022-12-10T16:37:31;45.13;;;14.77;;
16472;SDS011;8347;52.486;13.432;2022-12-10T16:40:18;38.05;;;14.35;;
16472;SDS011;8347;52.486;13.432;2022-12-10T16:43:05;35.22;;;13.10;;
16472;SDS011;8347;52.486;13.432;2022-12-10T16:45:52;34.25;;;14.15;;
16472;SDS011;8347;52.486;13.432;2022-12-10T16:48:40;29.00;;;12.65;;
16472;SDS011;8347;52.486;13.432;2022-12-10T16:51:27;32.72;;;15.35;;
16472;SDS011;8347;52.486;13.432;2022-12-10T16:54:14;43.22;;;15.23;;
16472;SDS011;8347;52.486;13.432;2022-12-10T16:57:01;35.22;;;13.45;;
16472;SDS011;8347;52.486;13.432;2022-12-10T16:59:48;38.05;;;15.38;;
16472;SDS011;8347;52.486;13.432;2022-12-10T17:02:34;37.45;;;14.23;;
16472;SDS011;8347;52.486;13.432;2022-12-10T17:05:26;36.35;;;14.68;;
16472;SDS011;8347;52.486;13.432;2022-12-10T17:08:15;38.42;;;15.02;;
16472;SDS011;8347;52.486;13.432;2022-12-10T17:11:04;45.50;;;16.83;;
16472;SDS011;8347;52.486;13.432;2022-12-10T17:14:31;44.50;;;16.92;;
16472;SDS011;8347;52.486;13.432;2022-12-10T17:17:18;46.83;;;15.82;;
16472;SDS011;8347;52.486;13.432;2022-12-10T17:20:10;38.40;;;16.05;;
16472;SDS011;8347;52.486;13.432;2022-12-10T17:23:00;38.80;;;16.33;;